createdAt,value
2018-04-30T00:00:01.744Z,99150.50
2018-04-30T00:02:27.688Z,99147.17
2018-04-30T00:04:53.692Z,99142.07
2018-04-30T00:07:19.624Z,99133.74
2018-04-30T00:09:45.560Z,99135.52
2018-04-30T00:12:11.516Z,99142.35
2018-04-30T00:14:37.525Z,99152.69
2018-04-30T00:17:03.471Z,99154.00
2018-04-30T00:19:29.435Z,99148.22
2018-04-30T00:21:55.408Z,99134.53
2018-04-30T00:24:21.349Z,99130.75
2018-04-30T00:26:47.296Z,99139.94
2018-04-30T00:29:13.329Z,99145.38
2018-04-30T00:31:39.265Z,99166.67
2018-04-30T00:34:05.208Z,99155.55
2018-04-30T00:36:31.221Z,99175.11
2018-04-30T00:38:57.164Z,99213.91
2018-04-30T00:41:23.109Z,99253.77
2018-04-30T00:43:49.063Z,99272.12
2018-04-30T00:46:14.996Z,99288.68
2018-04-30T00:48:40.944Z,99275.10
2018-04-30T00:51:06.884Z,99194.53
2018-04-30T00:53:32.868Z,99152.97
2018-04-30T00:55:58.877Z,99149.01
2018-04-30T00:58:24.845Z,99144.85
2018-04-30T01:00:50.789Z,99146.02
2018-04-30T01:03:16.725Z,99155.43
2018-04-30T01:05:42.659Z,99148.16
2018-04-30T01:08:08.605Z,99157.58
2018-04-30T01:10:34.536Z,99151.65
2018-04-30T01:13:00.476Z,99152.89
2018-04-30T01:15:26.425Z,99158.98
2018-04-30T01:17:52.367Z,99155.20
2018-04-30T01:20:18.368Z,99167.70
2018-04-30T01:22:44.342Z,99171.83
2018-04-30T01:25:10.278Z,99169.59
2018-04-30T01:27:36.216Z,99170.00
2018-04-30T01:30:02.324Z,99168.23
2018-04-30T01:32:28.260Z,99170.94
2018-04-30T01:34:54.212Z,99165.08
2018-04-30T01:37:20.196Z,99161.12
2018-04-30T01:39:46.156Z,99170.66
2018-04-30T01:42:12.096Z,99174.19
2018-04-30T01:44:38.148Z,99166.67
2018-04-30T01:47:04.088Z,99172.82
2018-04-30T01:49:30.033Z,99176.05
2018-04-30T01:51:56.041Z,99174.02
2018-04-30T01:54:22.000Z,99169.72
2018-04-30T01:56:47.943Z,99165.59
2018-04-30T01:59:13.916Z,99169.03
2018-04-30T02:01:39.883Z,99176.15
2018-04-30T02:04:05.845Z,99179.58
2018-04-30T02:06:31.892Z,99178.42
2018-04-30T02:08:57.848Z,99181.05
2018-04-30T02:11:23.805Z,99167.59
2018-04-30T02:13:49.736Z,99167.47
2018-04-30T02:16:15.696Z,99164.47
2018-04-30T02:18:41.652Z,99160.25
2018-04-30T02:21:07.632Z,99164.65
2018-04-30T02:23:33.584Z,99166.38
2018-04-30T02:25:59.544Z,99166.91
2018-04-30T02:28:25.529Z,99162.00
2018-04-30T02:30:51.475Z,99148.81
2018-04-30T02:33:17.427Z,99145.84
2018-04-30T02:35:43.380Z,99139.75
2018-04-30T02:38:09.347Z,99123.63
2018-04-30T02:40:35.280Z,99126.67
2018-04-30T02:43:01.232Z,99124.89
2018-04-30T02:45:27.200Z,99130.53
2018-04-30T02:47:53.200Z,99142.28
2018-04-30T02:50:19.172Z,99147.23
2018-04-30T02:52:45.128Z,99150.68
2018-04-30T02:55:11.060Z,99159.38
2018-04-30T02:57:37.001Z,99163.69
2018-04-30T03:00:02.967Z,99165.23
2018-04-30T03:02:28.912Z,99168.25
2018-04-30T03:04:54.860Z,99166.67
2018-04-30T03:07:20.811Z,99168.69
2018-04-30T03:09:46.858Z,99170.90
2018-04-30T03:12:12.776Z,99167.89
2018-04-30T03:14:38.716Z,99177.34
2018-04-30T03:17:04.662Z,99175.69
2018-04-30T03:19:30.622Z,99175.41
2018-04-30T03:21:56.577Z,99178.73
2018-04-30T03:24:22.517Z,99186.08
2018-04-30T03:26:48.460Z,99182.01
2018-04-30T03:29:14.393Z,99193.87
2018-04-30T03:31:40.348Z,99200.09
2018-04-30T03:34:06.285Z,99195.34
2018-04-30T03:36:32.221Z,99186.32
2018-04-30T03:38:58.158Z,99188.45
2018-04-30T03:41:24.112Z,99187.67
2018-04-30T03:43:50.053Z,99191.13
2018-04-30T03:46:16.024Z,99197.32
2018-04-30T03:48:41.963Z,99198.97
2018-04-30T03:51:07.913Z,99199.91
2018-04-30T03:53:33.857Z,99191.05
2018-04-30T03:55:59.791Z,99198.54
2018-04-30T03:58:25.756Z,99203.75
2018-04-30T04:00:51.740Z,99220.52
2018-04-30T04:03:17.709Z,99221.73
2018-04-30T04:05:43.661Z,99232.41
2018-04-30T04:08:09.604Z,99233.83
2018-04-30T04:10:35.549Z,99231.87
2018-04-30T04:13:01.619Z,99232.51
2018-04-30T04:15:27.560Z,99235.83
2018-04-30T04:17:53.498Z,99239.80
2018-04-30T04:20:19.474Z,99252.03
2018-04-30T04:22:45.448Z,99244.14
2018-04-30T04:25:11.459Z,99251.31
2018-04-30T04:27:37.405Z,99246.06
2018-04-30T04:30:03.363Z,99247.36
2018-04-30T04:32:29.308Z,99254.97
2018-04-30T04:34:55.246Z,99263.30
2018-04-30T04:37:21.199Z,99269.41
2018-04-30T04:39:47.133Z,99271.25
2018-04-30T04:42:13.077Z,99271.22
2018-04-30T04:44:39.021Z,99267.19
2018-04-30T04:47:04.989Z,99256.00
2018-04-30T04:49:30.939Z,99266.17
2018-04-30T04:51:56.875Z,99275.97
2018-04-30T04:54:22.810Z,99288.59
2018-04-30T04:56:48.747Z,99296.97
2018-04-30T04:59:14.692Z,99299.88
2018-04-30T05:01:40.633Z,99302.83
2018-04-30T05:04:06.568Z,99300.83
2018-04-30T05:06:32.500Z,99300.84
2018-04-30T05:08:58.440Z,99303.16
2018-04-30T05:11:24.380Z,99300.31
2018-04-30T05:13:50.355Z,99301.09
2018-04-30T05:16:16.323Z,99307.98
2018-04-30T05:18:42.274Z,99313.83
2018-04-30T05:21:08.243Z,99323.09
2018-04-30T05:23:34.191Z,99326.63
2018-04-30T05:26:00.159Z,99329.19
2018-04-30T05:28:26.115Z,99324.14
2018-04-30T05:30:52.052Z,99325.13
2018-04-30T05:33:18.025Z,99326.52
2018-04-30T05:35:43.982Z,99327.56
2018-04-30T05:38:09.924Z,99332.02
2018-04-30T05:40:35.911Z,99338.73
2018-04-30T05:43:01.860Z,99339.75
2018-04-30T05:45:27.812Z,99329.97
2018-04-30T05:47:53.753Z,99331.83
2018-04-30T05:50:19.743Z,99331.29
2018-04-30T05:52:45.708Z,99331.56
2018-04-30T05:55:11.810Z,99337.84
2018-04-30T05:57:37.622Z,99351.67
2018-04-30T06:00:03.564Z,99355.41
2018-04-30T06:02:29.508Z,99359.81
2018-04-30T06:04:55.480Z,99365.38
2018-04-30T06:07:21.422Z,99371.44
2018-04-30T06:09:47.435Z,99377.73
2018-04-30T06:12:13.442Z,99389.38
2018-04-30T06:14:39.559Z,99380.45
2018-04-30T06:17:05.503Z,99386.64
2018-04-30T06:19:31.479Z,99387.79
2018-04-30T06:21:57.636Z,99388.47
2018-04-30T06:24:23.619Z,99375.63
2018-04-30T06:26:49.685Z,99371.41
2018-04-30T06:29:15.519Z,99382.41
2018-04-30T06:31:41.469Z,99380.09
2018-04-30T06:34:07.427Z,99394.80
2018-04-30T06:36:33.387Z,99391.41
2018-04-30T06:38:59.324Z,99397.27
2018-04-30T06:41:25.268Z,99392.26
2018-04-30T06:43:51.209Z,99394.36
2018-04-30T06:46:17.155Z,99400.18
2018-04-30T06:48:43.187Z,99399.77
2018-04-30T06:51:09.164Z,99402.48
2018-04-30T06:53:35.252Z,99404.01
2018-04-30T06:56:01.090Z,99407.97
2018-04-30T06:58:27.039Z,99404.58
2018-04-30T07:00:53.000Z,99412.97
2018-04-30T07:03:19.053Z,99425.31
2018-04-30T07:05:44.987Z,99431.11
2018-04-30T07:08:10.949Z,99437.72
2018-04-30T07:10:36.888Z,99440.62
2018-04-30T07:13:02.863Z,99441.55
2018-04-30T07:15:28.806Z,99437.62
2018-04-30T07:17:54.741Z,99439.52
2018-04-30T07:20:20.694Z,99442.19
2018-04-30T07:22:46.628Z,99438.67
2018-04-30T07:25:12.613Z,99442.32
2018-04-30T07:27:38.633Z,99439.38
2018-04-30T07:30:04.502Z,99429.86
2018-04-30T07:32:30.483Z,99430.84
2018-04-30T07:34:56.445Z,99445.67
2018-04-30T07:37:22.405Z,99437.72
2018-04-30T07:39:48.363Z,99437.17
2018-04-30T07:42:14.324Z,99435.34
2018-04-30T07:44:40.264Z,99436.50
2018-04-30T07:47:06.236Z,99433.48
2018-04-30T07:49:32.176Z,99438.05
2018-04-30T07:51:58.140Z,99438.59
2018-04-30T07:54:24.096Z,99452.07
2018-04-30T07:56:50.031Z,99447.84
2018-04-30T07:59:16.091Z,99454.11
2018-04-30T08:01:42.034Z,99457.25
2018-04-30T08:04:08.018Z,99460.03
2018-04-30T08:06:33.948Z,99451.06
2018-04-30T08:08:59.912Z,99447.70
2018-04-30T08:11:25.899Z,99446.42
2018-04-30T08:13:51.923Z,99453.25
2018-04-30T08:16:17.865Z,99460.80
2018-04-30T08:18:43.804Z,99467.51
2018-04-30T08:21:09.890Z,99466.59
2018-04-30T08:23:35.926Z,99465.85
2018-04-30T08:26:01.877Z,99475.84
2018-04-30T08:28:27.842Z,99481.83
2018-04-30T08:30:53.924Z,99482.34
2018-04-30T08:33:19.905Z,99480.48
2018-04-30T08:35:45.911Z,99484.00
2018-04-30T08:38:11.858Z,99489.76
2018-04-30T08:40:37.815Z,99497.81
2018-04-30T08:43:03.773Z,99502.55
2018-04-30T08:45:29.711Z,99507.33
2018-04-30T08:47:55.739Z,99509.30
2018-04-30T08:50:21.676Z,99506.63
2018-04-30T08:52:47.619Z,99508.48
2018-04-30T08:55:13.576Z,99513.36
2018-04-30T08:57:39.541Z,99506.59
2018-04-30T09:00:05.472Z,99507.64
2018-04-30T09:02:31.447Z,99510.86
2018-04-30T09:04:57.427Z,99505.13
2018-04-30T09:07:23.468Z,99508.52
2018-04-30T09:09:49.439Z,99505.00
2018-04-30T09:12:15.381Z,99500.42
2018-04-30T09:14:41.363Z,99501.98
2018-04-30T09:17:07.291Z,99510.72
2018-04-30T09:19:33.235Z,99519.35
2018-04-30T09:21:59.199Z,99510.34
2018-04-30T09:24:25.136Z,99507.19
2018-04-30T09:26:51.089Z,99513.50
2018-04-30T09:29:17.031Z,99521.02
2018-04-30T09:31:42.996Z,99515.19
2018-04-30T09:34:08.956Z,99519.59
2018-04-30T09:36:34.929Z,99519.91
2018-04-30T09:39:00.888Z,99522.55
2018-04-30T09:41:26.823Z,99516.41
2018-04-30T09:43:52.771Z,99521.11
2018-04-30T09:46:18.718Z,99525.61
2018-04-30T09:48:44.661Z,99521.13
2018-04-30T09:51:10.608Z,99529.30
2018-04-30T09:53:36.574Z,99534.50
2018-04-30T09:56:02.536Z,99541.89
2018-04-30T09:58:28.495Z,99545.22
2018-04-30T10:00:54.476Z,99540.91
2018-04-30T10:03:20.420Z,99537.39
2018-04-30T10:05:46.356Z,99536.12
2018-04-30T10:08:12.308Z,99533.88
2018-04-30T10:10:38.276Z,99524.09
2018-04-30T10:13:04.231Z,99529.08
2018-04-30T10:15:30.173Z,99510.72
2018-04-30T10:17:56.144Z,99514.31
2018-04-30T10:20:22.164Z,99508.86
2018-04-30T10:22:48.211Z,99521.93
2018-04-30T10:25:14.165Z,99516.41
2018-04-30T10:27:40.120Z,99520.87
2018-04-30T10:30:06.082Z,99514.16
2018-04-30T10:32:32.017Z,99516.23
2018-04-30T10:34:58.032Z,99517.04
2018-04-30T10:37:24.003Z,99520.19
2018-04-30T10:39:49.997Z,99523.75
2018-04-30T10:42:15.950Z,99513.73
2018-04-30T10:44:41.969Z,99521.45
2018-04-30T10:47:07.908Z,99507.93
2018-04-30T10:49:33.868Z,99516.16
2018-04-30T10:51:59.825Z,99507.77
2018-04-30T10:54:25.776Z,99521.14
2018-04-30T10:56:51.761Z,99519.80
2018-04-30T10:59:17.717Z,99519.22
2018-04-30T11:01:43.651Z,99517.59
2018-04-30T11:04:09.614Z,99517.45
2018-04-30T11:06:35.568Z,99516.78
2018-04-30T11:09:01.520Z,99516.77
2018-04-30T11:11:27.452Z,99519.17
2018-04-30T11:13:53.387Z,99513.08
2018-04-30T11:16:19.349Z,99528.45
2018-04-30T11:18:45.313Z,99519.91
2018-04-30T11:21:11.283Z,99514.77
2018-04-30T11:23:37.308Z,99518.59
2018-04-30T11:26:03.260Z,99517.14
2018-04-30T11:28:29.196Z,99516.77
2018-04-30T11:30:55.140Z,99522.63
2018-04-30T11:33:21.086Z,99524.41
2018-04-30T11:35:47.029Z,99530.23
2018-04-30T11:38:12.995Z,99526.55
2018-04-30T11:40:38.939Z,99528.91
2018-04-30T11:43:04.875Z,99522.61
2018-04-30T11:45:30.848Z,99526.34
2018-04-30T11:47:56.817Z,99526.81
2018-04-30T11:50:22.751Z,99527.18
2018-04-30T11:52:48.696Z,99530.56
2018-04-30T11:55:14.643Z,99533.95
2018-04-30T11:57:40.609Z,99531.14
2018-04-30T12:00:06.556Z,99555.06
2018-04-30T12:02:32.585Z,99549.91
2018-04-30T12:04:58.561Z,99544.22
2018-04-30T12:07:24.447Z,99552.19
2018-04-30T12:09:50.432Z,99541.14
2018-04-30T12:12:16.457Z,99555.38
2018-04-30T12:14:42.436Z,99559.63
2018-04-30T12:17:08.397Z,99551.03
2018-04-30T12:22:20.397Z,99553.44
2018-04-30T12:24:46.368Z,99548.91
2018-04-30T12:27:12.370Z,99571.73
2018-04-30T12:29:38.385Z,99571.73
2018-04-30T12:32:04.340Z,99581.21
2018-04-30T12:34:30.341Z,99577.98
2018-04-30T12:36:56.319Z,99575.95
2018-04-30T12:39:22.295Z,99573.09
2018-04-30T12:41:48.251Z,99582.05
2018-04-30T12:44:14.255Z,99584.00
2018-04-30T12:46:40.237Z,99586.03
2018-04-30T12:49:06.310Z,99584.73
2018-04-30T12:51:32.326Z,99579.45
2018-04-30T12:53:58.289Z,99577.41
2018-04-30T12:56:24.301Z,99568.61
2018-04-30T12:58:50.270Z,99576.16
2018-04-30T13:01:16.254Z,99583.00
2018-04-30T13:03:42.288Z,99595.78
2018-04-30T13:06:08.278Z,99579.91
2018-04-30T13:08:34.230Z,99587.68
2018-04-30T13:11:00.197Z,99599.15
2018-04-30T13:13:26.194Z,99625.70
2018-04-30T13:15:52.189Z,99638.23
2018-04-30T13:18:18.138Z,99677.02
2018-04-30T13:20:44.125Z,99656.09
2018-04-30T13:23:10.114Z,99657.83
2018-04-30T13:25:36.104Z,99658.02
2018-04-30T13:28:02.064Z,99651.48
2018-04-30T13:30:28.035Z,99629.97
2018-04-30T13:32:53.993Z,99637.44
2018-04-30T13:35:19.952Z,99630.52
2018-04-30T13:37:45.922Z,99627.42
2018-04-30T13:40:12.203Z,99627.47
2018-04-30T13:42:38.207Z,99634.16
2018-04-30T13:45:04.199Z,99651.72
2018-04-30T13:47:30.197Z,99649.39
2018-04-30T13:49:56.172Z,99635.73
2018-04-30T13:52:22.313Z,99638.27
2018-04-30T13:54:48.264Z,99635.70
2018-04-30T14:02:18.655Z,99632.16
2018-04-30T14:04:44.551Z,99628.88
2018-04-30T14:07:10.532Z,99643.97
2018-04-30T14:09:36.528Z,99638.30
2018-04-30T14:12:02.519Z,99641.48
2018-04-30T14:14:28.529Z,99643.25
2018-04-30T14:16:54.873Z,99642.55
2018-04-30T14:19:20.857Z,99651.23
2018-04-30T14:21:46.817Z,99639.10
2018-04-30T14:24:12.803Z,99639.30
2018-04-30T14:26:38.767Z,99635.23
2018-04-30T14:29:04.748Z,99637.69
2018-04-30T14:31:30.722Z,99644.09
2018-04-30T14:33:56.673Z,99642.36
2018-04-30T14:36:22.641Z,99639.11
2018-04-30T14:38:48.622Z,99637.18
2018-04-30T14:41:14.603Z,99643.39
2018-04-30T14:43:40.565Z,99645.06
2018-04-30T14:46:06.521Z,99637.20
2018-04-30T14:48:32.510Z,99646.56
2018-04-30T14:50:59.076Z,99651.03
2018-04-30T14:53:25.097Z,99645.27
2018-04-30T15:00:58.485Z,99641.71
2018-04-30T15:03:24.482Z,99638.40
2018-04-30T15:05:50.454Z,99650.13
2018-04-30T15:08:17.465Z,99647.06
2018-04-30T15:10:43.435Z,99643.56
2018-04-30T15:13:09.454Z,99629.22
2018-04-30T15:15:35.424Z,99639.20
2018-04-30T15:18:01.447Z,99637.48
2018-04-30T15:20:27.475Z,99638.19
2018-04-30T15:22:53.475Z,99640.18
2018-04-30T15:25:19.453Z,99651.37
2018-04-30T15:32:49.012Z,99638.95
2018-04-30T15:35:15.040Z,99624.08
2018-04-30T15:37:41.025Z,99627.50
2018-04-30T15:40:07.031Z,99644.73
2018-04-30T15:45:08.611Z,99649.09
2018-04-30T15:47:34.618Z,99641.68
2018-04-30T15:50:00.576Z,99650.86
2018-04-30T15:52:26.555Z,99647.16
2018-04-30T16:02:30.729Z,99627.48
2018-04-30T16:04:56.810Z,99623.77
2018-04-30T16:30:04.920Z,99635.75
2018-04-30T16:32:30.980Z,99636.62
2018-04-30T16:34:57.057Z,99635.93
2018-04-30T16:37:23.044Z,99629.34
2018-04-30T16:39:49.289Z,99626.89
2018-04-30T16:42:15.399Z,99621.94
2018-04-30T17:04:57.381Z,99605.00
2018-04-30T17:07:23.381Z,99608.62
2018-04-30T17:09:49.370Z,99601.19
2018-04-30T17:12:15.345Z,99604.56
2018-04-30T17:14:41.318Z,99615.56
2018-04-30T17:17:07.320Z,99604.41
2018-04-30T17:19:33.300Z,99618.05
2018-04-30T17:21:59.288Z,99617.41
2018-04-30T17:24:25.284Z,99618.05
2018-04-30T17:26:51.310Z,99618.91
2018-04-30T17:29:17.869Z,99624.09
2018-04-30T17:31:43.843Z,99619.65
2018-04-30T17:34:09.849Z,99620.64
2018-04-30T17:36:35.860Z,99610.42
2018-04-30T17:39:01.800Z,99603.89
2018-04-30T17:41:27.785Z,99595.31
2018-04-30T17:43:53.772Z,99604.05
2018-04-30T17:46:19.772Z,99638.34
2018-04-30T17:48:45.736Z,99630.63
2018-04-30T17:51:11.716Z,99644.73
2018-04-30T17:53:37.692Z,99622.05
2018-04-30T17:56:03.678Z,99619.16
2018-04-30T17:58:29.659Z,99631.23
2018-04-30T18:00:55.633Z,99620.13
2018-04-30T18:03:21.585Z,99639.81
2018-04-30T18:05:47.597Z,99627.75
2018-04-30T18:08:13.569Z,99623.81
2018-04-30T18:10:39.524Z,99624.42
2018-04-30T18:13:05.554Z,99628.17
2018-04-30T18:15:31.562Z,99639.85
2018-04-30T18:17:57.578Z,99649.59
2018-04-30T18:20:23.580Z,99634.89
2018-04-30T18:22:49.543Z,99623.72
2018-04-30T18:25:19.408Z,99619.66
2018-04-30T18:27:45.374Z,99612.22
2018-04-30T18:30:11.388Z,99611.86
2018-04-30T18:32:37.503Z,99599.22
2018-04-30T18:35:03.592Z,99596.39
2018-04-30T18:37:29.693Z,99602.94
2018-04-30T18:39:55.788Z,99599.79
2018-04-30T18:42:22.061Z,99617.46
2018-04-30T18:44:48.162Z,99611.92
2018-04-30T18:47:14.210Z,99620.60
2018-04-30T18:49:40.239Z,99628.77
2018-04-30T18:52:06.271Z,99628.42
2018-04-30T18:54:32.310Z,99631.45
2018-04-30T18:56:58.388Z,99628.42
2018-04-30T18:59:24.567Z,99627.28
2018-04-30T19:01:50.602Z,99629.06
2018-04-30T19:04:16.618Z,99636.00
2018-04-30T19:06:42.646Z,99638.96
2018-04-30T19:09:08.723Z,99662.61
2018-04-30T19:11:34.827Z,99652.97
2018-04-30T19:14:00.860Z,99651.02
2018-04-30T19:16:28.961Z,99647.47
2018-04-30T19:18:55.037Z,99649.02
2018-04-30T19:21:22.139Z,99645.11
2018-04-30T19:31:22.738Z,99663.73
2018-04-30T19:33:48.951Z,99667.38
2018-04-30T19:36:14.973Z,99668.64
2018-04-30T19:38:41.142Z,99671.65
2018-04-30T19:43:38.495Z,99682.64
2018-04-30T19:56:09.856Z,99696.70
2018-04-30T19:58:35.923Z,99701.22
2018-04-30T20:01:02.109Z,99696.76
2018-04-30T20:03:28.166Z,99700.25
2018-04-30T20:05:54.194Z,99705.44
2018-04-30T20:08:23.830Z,99695.70
2018-04-30T20:10:49.925Z,99693.81
2018-04-30T20:13:15.988Z,99694.88
2018-04-30T20:15:42.270Z,99700.66
2018-04-30T20:18:08.369Z,99699.59
2018-04-30T20:20:34.436Z,99701.42
2018-04-30T20:23:00.550Z,99703.30
2018-04-30T20:25:26.598Z,99701.26
2018-04-30T20:27:52.665Z,99698.88
2018-04-30T20:30:18.783Z,99709.59
2018-04-30T20:32:44.883Z,99694.02
2018-04-30T20:35:11.142Z,99708.58
2018-04-30T20:37:37.179Z,99703.65
2018-04-30T20:40:03.236Z,99715.67
2018-04-30T20:42:29.377Z,99717.97
2018-04-30T20:44:55.405Z,99726.64
2018-04-30T20:47:21.443Z,99737.80
2018-04-30T20:49:47.534Z,99723.78
2018-04-30T20:52:13.628Z,99736.13
2018-04-30T20:54:39.677Z,99744.13
2018-04-30T20:57:05.744Z,99732.73
2018-04-30T20:59:31.812Z,99739.77
2018-04-30T21:01:57.893Z,99738.26
2018-04-30T21:04:23.969Z,99743.38
2018-04-30T21:06:50.026Z,99752.05
2018-04-30T21:14:21.263Z,99756.07
2018-04-30T21:16:47.371Z,99759.21
2018-04-30T21:19:13.489Z,99763.92
2018-04-30T21:21:39.621Z,99770.17
2018-04-30T21:24:05.925Z,99767.88
2018-04-30T21:26:31.982Z,99785.09
2018-04-30T21:28:58.010Z,99792.44
2018-04-30T21:31:24.081Z,99774.88
2018-04-30T21:33:50.135Z,99791.05
2018-04-30T21:36:16.219Z,99793.95
2018-04-30T21:38:42.313Z,99797.41
2018-04-30T21:41:08.400Z,99804.41
2018-04-30T21:43:34.682Z,99808.52
2018-04-30T21:48:33.664Z,99810.18
2018-04-30T21:50:59.998Z,99807.04
2018-04-30T21:56:01.866Z,99811.09
2018-04-30T22:01:00.395Z,99820.48
2018-04-30T22:03:26.445Z,99836.09
2018-04-30T22:05:52.551Z,99826.92
2018-04-30T22:15:52.783Z,99860.30
2018-04-30T22:18:18.991Z,99861.22
2018-04-30T22:20:44.997Z,99862.69
2018-04-30T22:23:11.650Z,99856.00
2018-04-30T22:25:37.712Z,99864.00
2018-04-30T22:28:03.681Z,99871.10
2018-04-30T22:30:29.865Z,99874.31
2018-04-30T22:32:55.845Z,99881.24
2018-04-30T22:35:22.003Z,99895.34
2018-04-30T22:37:48.077Z,99896.32
2018-04-30T22:40:14.105Z,99896.66
2018-04-30T22:42:40.141Z,99908.37
2018-04-30T22:45:06.177Z,99910.02
2018-04-30T22:47:32.520Z,99905.55
2018-04-30T22:49:58.554Z,99908.94
2018-04-30T22:52:24.594Z,99910.91
2018-04-30T22:54:50.737Z,99915.46
2018-04-30T22:57:16.698Z,99918.58
2018-04-30T22:59:42.708Z,99923.94
2018-04-30T23:02:08.751Z,99922.30
2018-04-30T23:04:34.752Z,99933.51
2018-04-30T23:07:00.750Z,99944.07
2018-04-30T23:09:26.790Z,99947.50
2018-04-30T23:11:53.337Z,99944.81
2018-04-30T23:14:19.659Z,99953.53
2018-04-30T23:16:45.829Z,99953.77
2018-04-30T23:19:11.841Z,99950.97
2018-04-30T23:26:41.115Z,99957.16
2018-04-30T23:29:07.155Z,99969.37
2018-04-30T23:31:33.134Z,99976.03
2018-04-30T23:34:00.124Z,99960.63
2018-04-30T23:36:26.142Z,99970.86
2018-04-30T23:38:52.215Z,99973.48
2018-04-30T23:41:18.498Z,99977.12
2018-04-30T23:43:44.477Z,99980.23
2018-04-30T23:46:11.090Z,99977.21
2018-04-30T23:48:37.275Z,99985.03
2018-04-30T23:51:03.438Z,99989.22
2018-04-30T23:53:29.447Z,99996.55
2018-04-30T23:55:55.428Z,99988.92
2018-04-30T23:58:21.476Z,99993.03
